Aviation Digital Data Service (ADDS)

Output produced by METARs form (0826 UTC 17 November 2018)
found at http://www.aviationweather.gov/metar/data/
 
KHBG 170520Z 1706/1806 18004KT P6SM SKC
       
KHDN 170520Z 1706/1806 10008KT P6SM FEW080 OVC110 
     FM171200 12006KT P6SM VCSH SCT070 OVC100 
     FM171700 24005KT 5SM -SN BR BKN025 OVC040 
     FM172300 30008KT P6SM VCSH BKN020 OVC025 
     FM180200 28005KT P6SM SCT030 BKN035
       
KHIE 170520Z 1706/1806 VRB03KT P6SM VCSH OVC018 
     FM170800 26005KT P6SM VCSH OVC025
       
TAF KHIF 170501Z 1705/1811 11009KT 9999 SCT080 QNH3003INS 
     BECMG 1708/1709 10009KT 9999 BKN080 QNH3004INS 
     BECMG 1714/1715 12009KT 8000 -SHRA BKN030 QNH3006INS 
     BECMG 1719/1720 28009KT 9999 NSW SCT030 BKN060 QNH3012INS 
     BECMG 1723/1724 27009KT 9999 SCT050 QNH3015INS 
     BECMG 1805/1806 11012KT 9999 FEW060 QNH3026INS TX11/1721Z TNM01/1712Z
       
KHIO 170526Z 1706/1806 00000KT 4SM BR SCT003 
     FM170700 00000KT 1/2SM FG VV001 
     FM171400 06003KT 4SM BR BKN005 
     FM171700 06006KT P6SM SKC 
     FM172100 08010G18KT P6SM SKC
       
KHKS 170520Z 1706/1806 18005KT P6SM SKC
       
KHKY 170523Z 1706/1806 VRB03KT P6SM FEW250 
     FM171700 16003KT P6SM SKC 
     FM180000 00000KT 6SM BR SKC
       
KHLG 170540Z 1706/1806 24007KT 5SM BR OVC015 
     FM172200 28006KT P6SM OVC022
       
KHLN 170521Z 1706/1806 29008KT P6SM -SN SCT030 OVC040 
     TEMPO 1706/1710 OVC030 
     FM171400 VRB03KT P6SM SKC
       
TAF AMD KHMN 1623/1723 15009KT 9999 SCT250 QNH3009INS 
     BECMG 1711/1712 VRB06KT 9999 FEW180 QNH3010INS TX17/1623Z TN03/1712Z LAST
NO AMDS AFT 1623 NEXT 1911
       
KHND 170520Z 1706/1806 19005KT P6SM FEW250 
     FM171600 VRB04KT P6SM SCT250
       
KHOB 170522Z 1706/1806 23007KT P6SM SCT250 
     FM171600 33011KT P6SM SCT250 
     FM180000 01013KT P6SM BKN250
       
KHON 170520Z 1706/1806 01016G23KT P6SM OVC020 
     FM171200 36013G19KT P6SM OVC025 
     FM171400 35012G17KT P6SM BKN050 
     FM171800 35010KT P6SM SCT060 
     FM180100 VRB04KT P6SM SKC
       
TAF KHOP 170800Z 1708/1814 VRB06KT 6000 BR SKC QNH3015INS 
     BECMG 1717/1718 VRB06KT 9999 NSW SKC QNH3017INS 
     BECMG 1805/1806 VRB06KT 9999 SCT015 QNH3021INS 
     BECMG 1811/1812 VRB06KT 8000 BR BKN008 QNH3021INS TX14/1721Z TNM01/1712Z
       
KHOT 170521Z 1706/1806 VRB02KT P6SM SKC 
     FM171800 22004KT P6SM SKC
       
KHOU 170543Z 1706/1806 13003KT P6SM SCT250 
     FM171200 11003KT P6SM SCT030 BKN250 
     FM171600 15006KT P6SM SCT035 BKN250 
     FM180300 14006KT P6SM BKN025 BKN250
       
KHPN 170525Z 1706/1806 25006KT P6SM BKN035 
     FM171400 28011G17KT P6SM FEW035 FEW150 
     FM172100 29005KT P6SM FEW035 SCT100 AMD NOT SKED
       
KHQM 170537Z 1706/1806 04006KT P6SM MIFG SKC 
     FM170900 04006KT 6SM MIFG SKC 
     TEMPO 1711/1715 4SM MIFG 
     FM171500 04009KT P6SM VCFG SKC 
     FM171800 06014KT P6SM SKC 
     FM180000 04008KT P6SM SKC
       
KHRL 170520Z 1706/1806 12005KT P6SM FEW040 SCT200 
     FM171400 14010KT P6SM SCT050 
     FM171700 14013G19KT P6SM BKN050 
     FM180100 13010KT P6SM BKN035
       
KHRO 170521Z 1706/1806 VRB03KT P6SM SKC 
     FM171500 19005KT P6SM SKC 
     FM180300 VRB06KT P6SM OVC100
       
TAF KHST 170000Z 1700/1806 01009KT 9999 BKN040 QNH2998INS 
     BECMG 1705/1706 36009KT 9999 SCT015 OVC025 QNH3000INS 
     BECMG 1715/1716 03010G15KT 9999 BKN035 QNH3002INS TX25/1719Z TN17/1711Z
       
KHSV 170523Z 1706/1806 VRB03KT P6SM SCT250 
     FM171500 24005KT P6SM SCT250
       
KHTS 170525Z 1706/1806 00000KT 6SM BR OVC020 
     TEMPO 1708/1712 3SM BR 
     FM171400 VRB04KT P6SM BKN021 
     FM171600 VRB04KT P6SM BKN070
       
KHUF 170535Z 1706/1806 00000KT P6SM OVC011 
     TEMPO 1706/1710 6SM BR 
     FM171400 14005KT P6SM BKN015 
     FM171600 14005KT P6SM OVC030 
     FM172000 06005KT P6SM OVC040 
     FM172100 03005KT P6SM OVC025
       
KHUM 170659Z 1707/1806 00000KT 4SM BR SKC 
     TEMPO 1707/1711 1SM BR SCT005 
     FM171400 09005KT P6SM SKC
       
KHUT 170529Z 1706/1806 14008KT P6SM BKN250 WS015/22030KT 
     FM171100 02015G25KT P6SM BKN120 
     FM171400 01015G25KT P6SM BKN015
       
KHVR 170751Z 1708/1806 VRB03KT 6SM BR SCT020 
     TEMPO 1708/1710 1SM BR BKN015 
     FM171100 21009KT P6SM FEW100
       
KHYA 170520Z 1706/1806 26012KT P6SM SKC 
     FM171500 28011G24KT P6SM SKC 
     FM172200 28005KT P6SM FEW200
       
KHYR 170520Z 1706/1806 34006KT P6SM OVC025 
     FM171100 34007KT P6SM BKN030 
     FM171600 34007KT P6SM SCT040 
     FM172000 31006KT P6SM SKC
       
KHYS 170535Z 1706/1806 01010KT P6SM SKC 
     FM170800 01016G25KT P6SM BKN100 
     FM171000 01022G37KT P6SM BKN040 
     FM171200 02022G37KT P6SM BKN015 
     FM172000 02012G25KT P6SM OVC015 
     FM180100 03015KT P6SM BKN015
       
KHUL 170757Z 1708/1806 30005KT 6SM -SN OVC035 
     FM170900 27004KT P6SM BKN045 
     FM171100 26005KT P6SM SCT050 
     FM171700 27009KT P6SM BKN030